createdAt,value
2022-08-20T00:01:38.701Z,28.25
2022-08-20T00:05:04.655Z,35.17
2022-08-20T00:08:31.230Z,34.45
2022-08-20T00:12:01.335Z,31.77
2022-08-20T00:15:29.798Z,34.40
2022-08-20T00:18:56.572Z,31.40
2022-08-20T00:22:22.438Z,25.63
2022-08-20T00:25:49.263Z,29.05
2022-08-20T00:29:16.630Z,30.38
2022-08-20T00:32:47.871Z,40.85
2022-08-20T00:36:15.900Z,39.20
2022-08-20T00:39:42.681Z,37.08
2022-08-20T00:43:24.405Z,31.15
2022-08-20T00:46:52.897Z,36.10
2022-08-20T00:50:22.340Z,36.70
2022-08-20T00:53:50.263Z,36.97
2022-08-20T00:57:50.634Z,33.63
2022-08-20T01:01:25.934Z,32.17
2022-08-20T01:04:55.573Z,41.13
2022-08-20T01:08:24.330Z,28.58
2022-08-20T01:11:50.477Z,32.50
2022-08-20T01:15:18.590Z,39.30
2022-08-20T01:18:50.294Z,38.33
2022-08-20T01:22:40.176Z,28.02
2022-08-20T01:26:15.921Z,35.83
2022-08-20T01:29:48.799Z,32.33
2022-08-20T01:33:14.726Z,25.42
2022-08-20T01:36:52.378Z,29.15
2022-08-20T01:40:36.820Z,30.17
2022-08-20T01:44:02.723Z,31.35
2022-08-20T01:47:38.431Z,30.50
2022-08-20T01:51:16.681Z,30.52
2022-08-20T01:54:44.345Z,35.53
2022-08-20T01:58:11.935Z,35.20
2022-08-20T02:01:46.033Z,37.22
2022-08-20T02:05:13.262Z,28.90
2022-08-20T02:08:39.226Z,33.10
2022-08-20T02:12:06.685Z,31.92
2022-08-20T02:15:37.125Z,25.60
2022-08-20T02:19:12.723Z,27.05
2022-08-20T02:22:50.327Z,32.90
2022-08-20T02:26:19.411Z,29.05
2022-08-20T02:29:46.962Z,35.47
2022-08-20T02:33:13.867Z,28.15
2022-08-20T02:36:42.324Z,26.20
2022-08-20T02:40:10.275Z,30.83
2022-08-20T02:43:37.611Z,23.33
2022-08-20T02:47:05.716Z,31.10
2022-08-20T02:50:31.856Z,28.02
2022-08-20T02:53:57.774Z,36.67
2022-08-20T02:57:23.554Z,31.55
2022-08-20T03:00:50.596Z,30.23
2022-08-20T03:07:43.236Z,34.72
2022-08-20T03:11:10.077Z,33.28
2022-08-20T03:14:37.678Z,25.20
2022-08-20T03:18:03.723Z,36.40
2022-08-20T03:21:29.585Z,28.00
2022-08-20T03:24:55.841Z,29.20
2022-08-20T03:28:21.722Z,26.17
2022-08-20T03:31:48.008Z,28.05
2022-08-20T03:35:15.371Z,33.67
2022-08-20T03:38:41.321Z,29.77
2022-08-20T03:42:07.808Z,33.05
2022-08-20T03:45:33.872Z,26.40
2022-08-20T03:49:00.555Z,26.50
2022-08-20T03:56:01.743Z,26.13
2022-08-20T03:59:29.374Z,32.78
2022-08-20T04:06:24.616Z,32.15
2022-08-20T04:13:17.074Z,34.03
2022-08-20T04:16:44.080Z,26.17
2022-08-20T04:20:13.635Z,36.75
2022-08-20T04:27:05.669Z,33.72
2022-08-20T04:30:33.346Z,40.72
2022-08-20T04:34:03.209Z,33.83
2022-08-20T04:37:29.302Z,40.75
2022-08-20T04:40:58.876Z,32.17
2022-08-20T04:44:29.104Z,25.83
2022-08-20T04:47:55.334Z,39.45
2022-08-20T04:51:23.004Z,37.30
2022-08-20T04:54:50.238Z,39.83
2022-08-20T04:58:21.084Z,39.30
2022-08-20T05:01:49.417Z,41.38
2022-08-20T05:05:15.224Z,35.10
2022-08-20T05:08:44.142Z,36.17
2022-08-20T05:12:10.902Z,36.08
2022-08-20T05:15:37.355Z,33.55
2022-08-20T05:19:04.167Z,28.95
2022-08-20T05:22:31.074Z,31.20
2022-08-20T05:25:57.940Z,29.05
2022-08-20T05:29:25.607Z,34.80
2022-08-20T05:32:51.399Z,36.00
2022-08-20T05:36:17.429Z,38.22
2022-08-20T05:39:44.383Z,33.63
2022-08-20T05:43:13.213Z,32.13
2022-08-20T05:46:41.170Z,33.15
2022-08-20T05:50:08.931Z,35.58
2022-08-20T05:53:45.628Z,24.80
2022-08-20T05:57:11.524Z,33.47
2022-08-20T06:00:37.704Z,28.85
2022-08-20T06:04:22.138Z,34.60
2022-08-20T06:07:49.188Z,25.92
2022-08-20T06:11:15.705Z,31.77
2022-08-20T06:14:41.633Z,30.52
2022-08-20T06:18:27.883Z,38.70
2022-08-20T06:21:56.781Z,32.70
2022-08-20T06:25:22.694Z,28.17
2022-08-20T06:28:48.564Z,26.88
2022-08-20T06:32:32.118Z,21.83
2022-08-20T06:35:59.944Z,27.95
2022-08-20T06:39:27.840Z,21.20
2022-08-20T06:42:53.601Z,31.27
2022-08-20T06:46:23.719Z,17.48
2022-08-20T06:49:50.111Z,23.67
2022-08-20T06:53:20.527Z,28.83
2022-08-20T06:56:54.457Z,20.25
2022-08-20T07:00:20.969Z,24.33
2022-08-20T07:03:54.083Z,23.95
2022-08-20T07:07:22.835Z,30.65
2022-08-20T07:14:17.499Z,21.83
2022-08-20T07:17:48.604Z,25.98
2022-08-20T07:21:14.791Z,24.42
2022-08-20T07:24:44.901Z,23.38
2022-08-20T07:28:15.632Z,24.13
2022-08-20T07:32:03.606Z,26.45
2022-08-20T07:35:30.365Z,24.60
2022-08-20T07:39:05.812Z,28.92
2022-08-20T07:42:33.309Z,26.67
2022-08-20T07:46:06.011Z,28.77
2022-08-20T07:49:33.283Z,30.27
2022-08-20T07:53:01.229Z,20.17
2022-08-20T07:56:27.981Z,27.05
2022-08-20T07:59:54.811Z,32.40
2022-08-20T08:03:20.770Z,26.13
2022-08-20T08:07:09.173Z,26.90
2022-08-20T08:10:36.316Z,30.40
2022-08-20T08:14:06.789Z,29.42
2022-08-20T08:17:33.595Z,29.70
2022-08-20T08:21:00.236Z,27.08
2022-08-20T08:24:28.434Z,33.60
2022-08-20T08:27:54.568Z,36.42
2022-08-20T08:31:20.498Z,29.17
2022-08-20T08:34:48.391Z,31.55
2022-08-20T08:38:15.015Z,31.90
2022-08-20T08:41:47.498Z,41.78
2022-08-20T08:45:17.878Z,33.60
2022-08-20T08:48:49.132Z,29.25
2022-08-20T08:52:23.452Z,36.45
2022-08-20T08:55:55.377Z,29.27
2022-08-20T08:59:23.382Z,34.15
2022-08-20T09:02:54.861Z,43.40
2022-08-20T09:06:25.237Z,33.10
2022-08-20T09:09:53.678Z,35.78
2022-08-20T09:13:21.719Z,36.08
2022-08-20T09:16:52.956Z,36.22
2022-08-20T09:20:27.002Z,41.45
2022-08-20T09:23:53.416Z,38.85
2022-08-20T09:27:19.798Z,37.35
2022-08-20T09:30:45.833Z,42.23
2022-08-20T09:34:13.074Z,37.33
2022-08-20T09:37:38.932Z,35.72
2022-08-20T09:41:06.273Z,31.30
2022-08-20T09:47:58.342Z,30.55
2022-08-20T09:51:29.127Z,28.85
2022-08-20T09:54:57.078Z,27.38
2022-08-20T09:58:24.300Z,28.73
2022-08-20T10:01:51.250Z,31.60
2022-08-20T10:05:20.377Z,31.77
2022-08-20T10:08:46.555Z,34.92
2022-08-20T10:12:12.458Z,34.30
2022-08-20T10:15:42.059Z,32.85
2022-08-20T10:19:09.760Z,34.92
2022-08-20T10:26:18.046Z,38.40
2022-08-20T10:29:46.857Z,29.40
2022-08-20T10:33:14.427Z,27.73
2022-08-20T10:40:08.756Z,31.45
2022-08-20T10:43:34.769Z,23.83
2022-08-20T10:47:20.702Z,24.10
2022-08-20T10:50:47.352Z,20.05
2022-08-20T10:54:13.340Z,27.83
2022-08-20T10:57:40.718Z,25.70
2022-08-20T11:01:08.494Z,16.13
2022-08-20T11:04:34.709Z,21.40
2022-08-20T11:08:22.619Z,21.60
2022-08-20T11:12:00.579Z,13.65
2022-08-20T11:15:26.725Z,13.82
2022-08-20T11:18:52.716Z,13.45
2022-08-20T11:22:19.224Z,16.17
2022-08-20T11:25:45.206Z,9.70
2022-08-20T11:29:12.230Z,9.48
2022-08-20T11:32:38.096Z,9.23
2022-08-20T11:36:04.630Z,11.25
2022-08-20T11:39:30.601Z,9.50
2022-08-20T11:43:14.108Z,10.35
2022-08-20T11:46:41.159Z,14.07
2022-08-20T11:50:12.329Z,12.13
2022-08-20T11:53:38.365Z,15.13
2022-08-20T11:57:07.234Z,16.35
2022-08-20T12:00:34.081Z,10.95
2022-08-20T12:04:05.162Z,12.82
2022-08-20T12:07:31.005Z,10.35
2022-08-20T12:10:58.096Z,13.00
2022-08-20T12:14:24.746Z,13.55
2022-08-20T12:21:16.902Z,12.68
2022-08-20T12:24:44.189Z,15.85
2022-08-20T12:28:15.649Z,12.05
2022-08-20T12:31:42.195Z,12.95
2022-08-20T12:35:08.844Z,11.45
2022-08-20T12:38:36.340Z,17.15
2022-08-20T12:42:03.586Z,18.67
2022-08-20T12:45:33.766Z,13.77
2022-08-20T12:49:03.354Z,12.88
2022-08-20T12:52:30.247Z,15.80
2022-08-20T12:55:56.900Z,16.38
2022-08-20T12:59:26.056Z,9.13
2022-08-20T13:02:53.718Z,18.05
2022-08-20T13:06:19.767Z,17.38
2022-08-20T13:09:51.606Z,18.23
2022-08-20T13:13:20.331Z,17.55
2022-08-20T13:16:47.578Z,16.17
2022-08-20T13:20:19.482Z,18.50
2022-08-20T13:23:45.320Z,11.90
2022-08-20T13:27:13.832Z,11.35
2022-08-20T13:30:49.824Z,16.05
2022-08-20T13:34:15.693Z,17.73
2022-08-20T13:37:42.346Z,13.70
2022-08-20T13:44:33.854Z,15.88
2022-08-20T13:48:00.022Z,13.27
2022-08-20T13:51:27.612Z,18.45
2022-08-20T13:54:56.445Z,17.83
2022-08-20T13:58:23.237Z,12.65
2022-08-20T14:01:49.741Z,12.85
2022-08-20T14:05:19.209Z,15.43
2022-08-20T14:08:45.647Z,17.80
2022-08-20T14:12:13.602Z,16.23
2022-08-20T14:15:39.917Z,17.48
2022-08-20T14:19:07.505Z,15.55
2022-08-20T14:22:44.432Z,13.57
2022-08-20T14:26:16.504Z,29.38
2022-08-20T14:29:43.996Z,18.17
2022-08-20T14:33:10.517Z,22.50
2022-08-20T14:36:37.558Z,20.10
2022-08-20T14:40:05.460Z,17.17
2022-08-20T14:43:32.841Z,16.35
2022-08-20T14:46:59.052Z,15.82
2022-08-20T14:50:26.601Z,18.48
2022-08-20T14:53:53.010Z,17.75
2022-08-20T14:57:19.923Z,19.60
2022-08-20T15:00:46.817Z,19.95
2022-08-20T15:07:40.260Z,13.48
2022-08-20T15:11:09.018Z,18.20
2022-08-20T15:14:35.132Z,19.58
2022-08-20T15:18:05.329Z,19.00
2022-08-20T15:21:45.337Z,15.13
2022-08-20T15:25:13.723Z,26.45
2022-08-20T15:28:40.053Z,15.80
2022-08-20T15:32:10.018Z,16.23
2022-08-20T15:35:36.894Z,17.83
2022-08-20T15:39:04.048Z,21.90
2022-08-20T15:42:29.911Z,14.15
2022-08-20T15:45:56.910Z,18.13
2022-08-20T15:52:50.125Z,15.40
2022-08-20T15:56:32.260Z,18.17
2022-08-20T16:00:11.864Z,15.02
2022-08-20T16:04:01.358Z,13.82
2022-08-20T16:07:29.529Z,19.73
2022-08-20T16:11:12.637Z,16.92
2022-08-20T16:14:41.269Z,19.17
2022-08-20T16:18:11.859Z,14.98
2022-08-20T16:21:46.561Z,24.55
2022-08-20T16:25:13.964Z,20.90
2022-08-20T16:28:56.673Z,16.90
2022-08-20T16:32:27.695Z,20.38
2022-08-20T16:36:02.140Z,18.80
2022-08-20T16:39:51.406Z,13.65
2022-08-20T16:43:30.162Z,14.23
2022-08-20T16:47:21.172Z,20.80
2022-08-20T16:50:57.432Z,15.18
2022-08-20T16:54:29.288Z,20.85
2022-08-20T16:57:59.575Z,23.13
2022-08-20T17:01:26.304Z,20.45
2022-08-20T17:04:59.404Z,14.82
2022-08-20T17:08:47.855Z,18.30
2022-08-20T17:12:24.188Z,14.93
2022-08-20T17:15:55.568Z,23.52
2022-08-20T17:19:29.327Z,20.00
2022-08-20T17:23:09.325Z,18.63
2022-08-20T17:26:40.776Z,18.08
2022-08-20T17:30:19.887Z,24.15
2022-08-20T17:33:59.753Z,22.23
2022-08-20T17:37:27.933Z,15.80
2022-08-20T17:41:08.770Z,22.38
2022-08-20T17:44:38.969Z,18.92
2022-08-20T17:48:08.859Z,25.00
2022-08-20T17:51:45.070Z,18.42
2022-08-20T17:55:21.849Z,18.70
2022-08-20T17:58:54.611Z,26.53
2022-08-20T18:02:22.559Z,20.00
2022-08-20T18:05:58.431Z,14.48
2022-08-20T18:09:39.130Z,20.48
2022-08-20T18:13:18.649Z,20.75
2022-08-20T18:17:05.183Z,20.80
2022-08-20T18:20:52.418Z,20.25
2022-08-20T18:24:40.756Z,24.33
2022-08-20T18:28:23.416Z,18.13
2022-08-20T18:31:53.680Z,23.83
2022-08-20T18:35:33.631Z,18.80
2022-08-20T18:39:32.679Z,26.27
2022-08-20T18:43:13.783Z,22.15
2022-08-20T18:46:58.584Z,24.60
2022-08-20T18:50:31.493Z,28.52
2022-08-20T18:54:26.666Z,22.80
2022-08-20T18:58:04.149Z,25.92
2022-08-20T19:01:36.750Z,31.02
2022-08-20T19:05:13.526Z,24.27
2022-08-20T19:09:02.027Z,23.47
2022-08-20T19:12:30.849Z,23.77
2022-08-20T19:16:29.420Z,25.23
2022-08-20T19:23:30.042Z,25.27
2022-08-20T19:27:02.842Z,23.65
2022-08-20T19:30:35.421Z,20.92
2022-08-20T19:34:20.184Z,18.52
2022-08-20T19:38:01.611Z,17.05
2022-08-20T19:41:32.671Z,17.25
2022-08-20T19:45:09.340Z,15.73
2022-08-20T19:49:12.600Z,24.35
2022-08-20T19:52:45.884Z,22.25
2022-08-20T19:56:19.890Z,28.30
2022-08-20T20:00:02.040Z,27.00
2022-08-20T20:03:37.929Z,23.95
2022-08-20T20:07:35.672Z,25.73
2022-08-20T20:11:03.913Z,22.83
2022-08-20T20:14:32.499Z,20.20
2022-08-20T20:18:00.804Z,21.65
2022-08-20T20:21:42.365Z,20.80
2022-08-20T20:25:20.378Z,24.83
2022-08-20T20:28:53.229Z,22.00
2022-08-20T20:32:30.647Z,20.75
2022-08-20T20:36:08.776Z,17.75
2022-08-20T20:39:37.875Z,22.20
2022-08-20T20:43:07.929Z,26.92
2022-08-20T20:46:39.350Z,23.73
2022-08-20T20:50:12.113Z,21.00
2022-08-20T20:53:54.410Z,20.98
2022-08-20T20:57:51.676Z,22.63
2022-08-20T21:01:18.978Z,18.95
2022-08-20T21:05:04.548Z,27.27
2022-08-20T21:08:30.526Z,23.00
2022-08-20T21:11:56.371Z,22.98
2022-08-20T21:15:23.587Z,27.00
2022-08-20T21:22:15.269Z,17.40
2022-08-20T21:25:43.745Z,24.15
2022-08-20T21:29:11.650Z,21.33
2022-08-20T21:32:39.724Z,17.75
2022-08-20T21:36:06.120Z,15.98
2022-08-20T21:39:31.997Z,16.70
2022-08-20T21:43:00.367Z,18.95
2022-08-20T21:46:28.948Z,13.68
2022-08-20T21:49:55.370Z,19.13
2022-08-20T21:53:21.204Z,17.67
2022-08-20T21:56:49.735Z,16.73
2022-08-20T22:00:36.189Z,14.23
2022-08-20T22:04:02.742Z,16.08
2022-08-20T22:07:28.615Z,15.25
2022-08-20T22:10:54.812Z,18.48
2022-08-20T22:14:21.265Z,15.00
2022-08-20T22:17:47.209Z,12.03
2022-08-20T22:21:16.349Z,21.33
2022-08-20T22:24:42.609Z,25.17
2022-08-20T22:28:08.584Z,19.98
2022-08-20T22:31:37.436Z,23.50
2022-08-20T22:35:03.939Z,18.88
2022-08-20T22:38:30.394Z,21.10
2022-08-20T22:41:59.527Z,21.60
2022-08-20T22:45:25.436Z,18.55
2022-08-20T22:48:51.349Z,15.15
2022-08-20T22:52:20.669Z,13.85
2022-08-20T22:55:48.779Z,16.10
2022-08-20T22:59:14.900Z,17.35
2022-08-20T23:02:44.184Z,15.93
2022-08-20T23:06:13.858Z,11.77
2022-08-20T23:09:41.205Z,13.20
2022-08-20T23:16:36.745Z,14.80
2022-08-20T23:20:02.656Z,15.73
2022-08-20T23:23:28.625Z,20.02
2022-08-20T23:26:54.804Z,12.60
2022-08-20T23:30:21.624Z,13.95
2022-08-20T23:33:48.273Z,16.23
2022-08-20T23:37:19.148Z,17.63
2022-08-20T23:40:45.069Z,16.48
2022-08-20T23:44:26.493Z,12.90
2022-08-20T23:47:54.789Z,13.05
2022-08-20T23:51:24.580Z,18.45
2022-08-20T23:54:50.529Z,14.70
2022-08-20T23:58:16.374Z,13.98
